Bishop International Airport
KFNT : now visible

Airfield :











YOU CAN JOIN US ON...

 
LOGIN :

Register | Disclaimer

   EN    FR    IT 

 









Legend :    VFR   Marginal VFR   IFR   Intensive IFR   Very Intensive IFR
Visi :
Ceiling :
>= 8 km
>= 3000ft
5 to 8 km
1000 to 3000 ft
1500m to 5 km
500 to 1000 ft
800 to 1500m
200 to 500 ft
< 800m
< 200 ft
Symbols :   Thunderstorms  Fog  Heavy snow  Heavy precipitations  Wind > 20 kt







- Airport Elevation : 782 ft
- IATA code : FNT


KFNT - Bishop International

CURRENT METAR :
  • 191601Z 01014G20KT 10SM OVC010 04/02 A2976 RMK AO2 CIG 008V013 T00440022

EXPIRED METARs :
  • 191553Z 02016G21KT 10SM OVC009 04/02 A2976 RMK AO2 CIG 008V012 SLP083 T00390022
  • 191453Z 01013KT 10SM OVC009 04/02 A2975 RMK AO2 SLP079 60002 T00440022 53018
  • 191353Z 01014KT 10SM OVC009 04/02 A2971 RMK AO2 RAE23 CIG 008V012 SLP066 P0000 T00390022

TAF KFNT
Valid from the 19 at 13:00 until the 20 at 12:00 UTC


191306Z 1913/2012 01011KT P6SM -RA OVC008
FM191500 02016G26KT P6SM BKN014 OVC022
FM200100 01018KT P6SM OVC010
KZOB FIR / North America



MET'MAP, your aeronautical weather chart ! - Copyright ORBIFLY December 2007 - Disclaimer

ORBIFLY MET'MAP TEAM :

Programming & Development : Alexandra Zaïnal
Concept & Development : Baudouin d'Aumeries
Co-Development & Prog : Marc-Olivier Méhu
Technical & hardware support : Manuel Goepfert

Contact : metmap@orbifly.com




SOURCES & CREDITS :

   NOAA       Earth
Advisory